createdAt,value
2022-11-14T00:00:50.232Z,7.52
2022-11-14T00:03:36.083Z,7.58
2022-11-14T00:06:22.657Z,7.63
2022-11-14T00:09:09.012Z,7.65
2022-11-14T00:11:56.103Z,7.67
2022-11-14T00:14:43.854Z,7.66
2022-11-14T00:17:33.741Z,7.60
2022-11-14T00:20:21.415Z,7.56
2022-11-14T00:23:07.770Z,7.56
2022-11-14T00:25:53.401Z,7.53
2022-11-14T00:28:40.276Z,7.51
2022-11-14T00:31:26.095Z,7.49
2022-11-14T00:34:11.741Z,7.54
2022-11-14T00:36:57.852Z,7.48
2022-11-14T00:39:45.142Z,7.50
2022-11-14T00:42:30.605Z,7.52
2022-11-14T00:45:15.853Z,7.49
2022-11-14T00:48:02.349Z,7.57
2022-11-14T00:50:48.630Z,7.58
2022-11-14T00:53:36.130Z,7.55
2022-11-14T00:56:23.950Z,7.55
2022-11-14T00:59:17.428Z,7.63
2022-11-14T01:02:04.576Z,7.61
2022-11-14T01:04:50.312Z,7.47
2022-11-14T01:07:35.945Z,7.39
2022-11-14T01:10:23.646Z,7.39
2022-11-14T01:13:13.079Z,7.41
2022-11-14T01:16:02.292Z,7.44
2022-11-14T01:18:49.087Z,7.51
2022-11-14T01:21:35.338Z,7.56
2022-11-14T01:24:22.614Z,7.61
2022-11-14T01:27:08.468Z,7.58
2022-11-14T01:29:54.558Z,7.52
2022-11-14T01:32:43.855Z,7.47
2022-11-14T01:35:33.027Z,7.56
2022-11-14T01:38:19.275Z,7.50
2022-11-14T01:41:06.108Z,7.55
2022-11-14T01:43:51.608Z,7.49
2022-11-14T01:46:40.582Z,7.52
2022-11-14T01:49:34.840Z,7.55
2022-11-14T01:52:41.126Z,7.56
2022-11-14T01:55:27.871Z,7.53
2022-11-14T01:58:14.965Z,7.48
2022-11-14T02:01:01.082Z,7.57
2022-11-14T02:03:50.283Z,7.52
2022-11-14T02:06:36.658Z,7.47
2022-11-14T02:09:23.216Z,7.47
2022-11-14T02:12:12.191Z,7.44
2022-11-14T02:15:00.072Z,7.36
2022-11-14T02:17:47.512Z,7.41
2022-11-14T02:20:43.093Z,7.39
2022-11-14T02:23:32.989Z,7.43
2022-11-14T02:26:24.696Z,7.44
2022-11-14T02:29:12.370Z,7.50
2022-11-14T02:31:59.024Z,7.45
2022-11-14T02:34:47.798Z,7.46
2022-11-14T02:37:33.395Z,7.46
2022-11-14T02:40:20.220Z,7.38
2022-11-14T02:43:06.146Z,7.41
2022-11-14T02:45:51.814Z,7.37
2022-11-14T02:48:38.664Z,7.39
2022-11-14T02:51:25.454Z,7.45
2022-11-14T02:54:12.166Z,7.42
2022-11-14T02:56:59.048Z,7.39
2022-11-14T02:59:45.028Z,7.35
2022-11-14T03:02:31.224Z,7.36
2022-11-14T03:05:18.762Z,7.31
2022-11-14T03:08:08.738Z,7.33
2022-11-14T03:10:55.151Z,7.35
2022-11-14T03:13:42.283Z,7.39
2022-11-14T03:16:30.870Z,7.40
2022-11-14T03:19:16.633Z,7.40
2022-11-14T03:22:02.887Z,7.41
2022-11-14T03:24:48.705Z,7.43
2022-11-14T03:27:36.132Z,7.44
2022-11-14T03:30:21.842Z,7.53
2022-11-14T03:33:07.249Z,7.49
2022-11-14T03:35:54.627Z,7.47
2022-11-14T03:38:40.803Z,7.46
2022-11-14T03:41:26.445Z,7.38
2022-11-14T03:44:11.970Z,7.40
2022-11-14T03:46:57.256Z,7.38
2022-11-14T03:49:45.161Z,7.34
2022-11-14T03:52:30.428Z,7.42
2022-11-14T03:55:16.566Z,7.39
2022-11-14T03:58:02.223Z,7.31
2022-11-14T04:00:47.686Z,7.32
2022-11-14T04:03:32.993Z,7.23
2022-11-14T04:06:18.314Z,7.24
2022-11-14T04:09:04.584Z,7.28
2022-11-14T04:11:50.563Z,7.23
2022-11-14T04:14:36.422Z,7.31
2022-11-14T04:17:22.558Z,7.38
2022-11-14T04:20:10.677Z,7.33
2022-11-14T04:22:57.344Z,7.35
2022-11-14T04:25:44.667Z,7.28
2022-11-14T04:28:30.509Z,7.17
2022-11-14T04:31:15.999Z,7.22
2022-11-14T04:34:01.744Z,7.24
2022-11-14T04:36:47.786Z,7.20
2022-11-14T04:39:33.520Z,7.18
2022-11-14T04:42:19.077Z,7.17
2022-11-14T04:45:05.847Z,7.15
2022-11-14T04:47:51.394Z,7.12
2022-11-14T04:50:36.949Z,7.10
2022-11-14T04:53:22.334Z,7.19
2022-11-14T04:56:07.785Z,7.12
2022-11-14T04:58:53.593Z,7.04
2022-11-14T05:01:39.450Z,7.16
2022-11-14T05:04:25.183Z,7.19
2022-11-14T05:07:11.938Z,7.27
2022-11-14T05:09:57.813Z,7.30
2022-11-14T05:12:44.289Z,7.23
2022-11-14T05:15:33.200Z,7.24
2022-11-14T05:18:19.671Z,7.31
2022-11-14T05:21:05.685Z,7.30
2022-11-14T05:23:51.375Z,7.28
2022-11-14T05:26:37.708Z,7.28
2022-11-14T05:29:23.554Z,7.19
2022-11-14T05:32:12.395Z,7.32
2022-11-14T05:35:01.787Z,7.28
2022-11-14T05:37:48.176Z,7.28
2022-11-14T05:40:34.855Z,7.39
2022-11-14T05:43:20.667Z,7.33
2022-11-14T05:46:12.631Z,7.42
2022-11-14T05:48:58.663Z,7.44
2022-11-14T05:51:44.857Z,7.34
2022-11-14T05:54:30.903Z,7.35
2022-11-14T05:57:17.111Z,7.43
2022-11-14T06:00:05.753Z,7.46
2022-11-14T06:02:55.455Z,7.23
2022-11-14T06:05:41.546Z,7.56
2022-11-14T06:08:29.938Z,7.56
2022-11-14T06:11:20.946Z,7.67
2022-11-14T06:14:11.399Z,7.65
2022-11-14T06:16:59.956Z,7.77
2022-11-14T06:19:46.096Z,7.77
2022-11-14T06:22:34.667Z,7.83
2022-11-14T06:25:20.617Z,7.81
2022-11-14T06:28:06.427Z,7.79
2022-11-14T06:30:52.617Z,7.81
2022-11-14T06:33:40.392Z,7.79
2022-11-14T06:36:26.563Z,7.79
2022-11-14T06:39:13.150Z,7.82
2022-11-14T06:42:00.070Z,7.85
2022-11-14T06:44:46.358Z,7.97
2022-11-14T06:47:32.404Z,7.94
2022-11-14T06:50:18.092Z,7.97
2022-11-14T06:53:06.093Z,8.04
2022-11-14T06:56:07.181Z,8.02
2022-11-14T06:58:53.108Z,8.08
2022-11-14T07:01:40.156Z,8.16
2022-11-14T07:04:26.622Z,8.25
2022-11-14T07:07:12.502Z,8.19
2022-11-14T07:09:58.908Z,8.10
2022-11-14T07:12:44.794Z,8.19
2022-11-14T07:15:30.590Z,8.34
2022-11-14T07:18:17.191Z,8.42
2022-11-14T07:21:06.167Z,8.37
2022-11-14T07:23:52.157Z,8.42
2022-11-14T07:26:37.770Z,8.40
2022-11-14T07:29:23.551Z,8.51
2022-11-14T07:33:00.829Z,8.65
2022-11-14T07:35:47.923Z,8.63
2022-11-14T07:38:36.000Z,8.65
2022-11-14T07:41:23.044Z,8.72
2022-11-14T07:44:09.755Z,8.63
2022-11-14T07:46:56.487Z,8.70
2022-11-14T07:49:42.668Z,8.75
2022-11-14T07:52:28.738Z,8.76
2022-11-14T07:55:40.131Z,8.89
2022-11-14T07:58:27.249Z,8.92
2022-11-14T08:01:14.835Z,8.79
2022-11-14T08:04:01.214Z,8.77
2022-11-14T08:06:47.527Z,8.80
2022-11-14T08:09:32.886Z,8.91
2022-11-14T08:12:18.825Z,8.84
2022-11-14T08:15:06.571Z,8.91
2022-11-14T08:17:51.993Z,8.90
2022-11-14T08:20:37.988Z,8.89
2022-11-14T08:23:24.325Z,8.96
2022-11-14T08:26:10.365Z,8.94
2022-11-14T08:28:56.511Z,8.92
2022-11-14T08:31:42.462Z,9.02
2022-11-14T08:34:29.731Z,9.05
2022-11-14T08:37:15.302Z,9.07
2022-11-14T08:40:03.673Z,9.06
2022-11-14T08:42:50.119Z,9.08
2022-11-14T08:45:35.830Z,9.15
2022-11-14T08:48:21.486Z,9.11
2022-11-14T08:51:07.658Z,9.27
2022-11-14T08:53:55.067Z,9.26
2022-11-14T08:56:41.934Z,9.34
2022-11-14T08:59:28.031Z,9.38
2022-11-14T09:02:15.055Z,9.51
2022-11-14T09:05:01.483Z,9.57
2022-11-14T09:07:47.567Z,9.39
2022-11-14T09:10:36.605Z,9.38
2022-11-14T09:13:23.012Z,9.53
2022-11-14T09:16:09.030Z,9.65
2022-11-14T09:18:55.203Z,9.62
2022-11-14T09:21:41.224Z,9.73
2022-11-14T09:24:29.638Z,9.79
2022-11-14T09:27:15.663Z,9.82
2022-11-14T09:30:01.834Z,9.98
2022-11-14T09:32:47.914Z,10.06
2022-11-14T09:35:43.558Z,10.09
2022-11-14T09:38:33.995Z,10.01
2022-11-14T09:41:27.400Z,10.04
2022-11-14T09:44:28.495Z,10.14
2022-11-14T09:47:23.268Z,10.22
2022-11-14T09:50:14.796Z,10.20
2022-11-14T09:53:22.300Z,10.17
2022-11-14T09:56:15.359Z,10.27
2022-11-14T09:59:01.302Z,10.31
2022-11-14T10:02:27.716Z,10.39
2022-11-14T10:05:16.193Z,10.55
2022-11-14T10:08:11.407Z,10.60
2022-11-14T10:11:10.910Z,10.46
2022-11-14T10:14:46.945Z,10.63
2022-11-14T10:17:35.058Z,10.84
2022-11-14T10:20:27.135Z,10.84
2022-11-14T10:23:45.638Z,10.81
2022-11-14T10:26:36.603Z,10.77
2022-11-14T10:29:25.542Z,10.87
2022-11-14T10:32:35.191Z,10.92
2022-11-14T10:35:25.234Z,10.91
2022-11-14T10:38:26.189Z,11.00
2022-11-14T10:41:28.505Z,11.06
2022-11-14T10:44:23.308Z,11.13
2022-11-14T10:47:15.354Z,11.07
2022-11-14T10:50:15.500Z,11.06
2022-11-14T10:53:05.228Z,11.06
2022-11-14T10:56:08.712Z,11.09
2022-11-14T10:58:54.157Z,11.16
2022-11-14T11:01:43.551Z,11.15
2022-11-14T11:04:35.323Z,11.17
2022-11-14T11:07:42.518Z,11.18
2022-11-14T11:10:47.796Z,11.24
2022-11-14T11:13:41.579Z,11.33
2022-11-14T11:16:32.829Z,11.27
2022-11-14T11:19:27.179Z,11.34
2022-11-14T11:22:25.422Z,11.42
2022-11-14T11:25:27.680Z,11.28
2022-11-14T11:28:22.571Z,11.37
2022-11-14T11:31:10.872Z,11.40
2022-11-14T11:34:03.838Z,11.33
2022-11-14T11:37:01.735Z,11.44
2022-11-14T11:39:56.394Z,11.56
2022-11-14T11:43:38.482Z,11.66
2022-11-14T11:46:24.851Z,11.62
2022-11-14T11:49:24.228Z,11.65
2022-11-14T11:52:26.857Z,11.64
2022-11-14T11:55:32.150Z,11.63
2022-11-14T11:58:27.256Z,11.69
2022-11-14T12:01:14.316Z,11.69
2022-11-14T12:04:01.904Z,11.62
2022-11-14T12:07:03.702Z,11.57
2022-11-14T12:13:19.867Z,11.63
2022-11-14T12:16:33.559Z,11.73
2022-11-14T12:19:40.413Z,11.79
2022-11-14T12:22:46.378Z,11.91
2022-11-14T12:25:56.485Z,11.99
2022-11-14T12:29:00.465Z,12.08
2022-11-14T12:31:48.464Z,12.06
2022-11-14T12:34:42.638Z,12.16
2022-11-14T12:37:43.154Z,12.09
2022-11-14T12:40:40.366Z,12.15
2022-11-14T12:43:36.405Z,12.21
2022-11-14T12:46:23.548Z,12.23
2022-11-14T12:49:48.521Z,12.28
2022-11-14T12:52:46.466Z,12.35
2022-11-14T12:55:31.917Z,12.37
2022-11-14T12:58:30.087Z,12.40
2022-11-14T13:01:18.563Z,12.37
2022-11-14T13:04:22.261Z,12.36
2022-11-14T13:07:34.724Z,12.39
2022-11-14T13:10:42.322Z,12.37
2022-11-14T13:13:47.736Z,12.32
2022-11-14T13:16:52.130Z,12.26
2022-11-14T13:20:06.216Z,12.23
2022-11-14T13:22:53.099Z,12.19
2022-11-14T13:25:39.108Z,12.20
2022-11-14T13:28:43.575Z,12.13
2022-11-14T13:31:51.627Z,12.01
2022-11-14T13:34:51.762Z,12.00
2022-11-14T13:37:56.059Z,11.96
2022-11-14T13:41:05.524Z,11.91
2022-11-14T13:44:01.329Z,11.92
2022-11-14T13:46:52.895Z,11.85
2022-11-14T13:49:56.711Z,11.65
2022-11-14T13:52:46.583Z,11.56
2022-11-14T13:55:54.217Z,11.50
2022-11-14T13:59:05.315Z,11.32
2022-11-14T14:02:11.302Z,11.36
2022-11-14T14:05:36.453Z,11.26
2022-11-14T14:08:53.660Z,11.20
2022-11-14T14:12:00.753Z,11.08
2022-11-14T14:15:15.181Z,11.05
2022-11-14T14:18:35.645Z,11.07
2022-11-14T14:21:29.955Z,11.07
2022-11-14T14:24:29.475Z,11.07
2022-11-14T14:27:36.367Z,11.04
2022-11-14T14:30:25.989Z,10.98
2022-11-14T14:33:15.540Z,10.97
2022-11-14T14:36:01.312Z,10.96
2022-11-14T14:38:48.939Z,10.83
2022-11-14T14:41:35.241Z,10.77
2022-11-14T14:44:35.077Z,10.69
2022-11-14T14:47:41.496Z,10.73
2022-11-14T14:50:33.428Z,10.57
2022-11-14T14:53:25.365Z,10.58
2022-11-14T14:56:20.826Z,10.51
2022-11-14T14:59:18.757Z,10.43
2022-11-14T15:02:15.435Z,10.36
2022-11-14T15:05:03.596Z,10.35
2022-11-14T15:07:51.478Z,10.38
2022-11-14T15:10:37.833Z,10.35
2022-11-14T15:13:25.500Z,10.32
2022-11-14T15:16:11.589Z,10.27
2022-11-14T15:19:00.614Z,10.22
2022-11-14T15:22:04.141Z,10.28
2022-11-14T15:25:12.192Z,10.23
2022-11-14T15:28:02.629Z,10.21
2022-11-14T15:31:02.410Z,10.26
2022-11-14T15:34:34.385Z,10.23
2022-11-14T15:37:22.596Z,10.26
2022-11-14T15:40:22.761Z,10.22
2022-11-14T15:43:37.212Z,10.27
2022-11-14T15:46:37.812Z,10.23
2022-11-14T15:49:26.885Z,10.24
2022-11-14T15:52:26.622Z,10.22
2022-11-14T15:55:16.209Z,10.30
2022-11-14T15:58:26.637Z,10.22
2022-11-14T16:01:16.051Z,10.22
2022-11-14T16:04:02.952Z,10.23
2022-11-14T16:06:48.901Z,10.18
2022-11-14T16:09:34.988Z,10.22
2022-11-14T16:12:21.499Z,10.23
2022-11-14T16:15:08.085Z,10.30
2022-11-14T16:17:53.895Z,10.29
2022-11-14T16:20:42.111Z,10.21
2022-11-14T16:23:27.744Z,10.26
2022-11-14T16:26:13.571Z,10.27
2022-11-14T16:28:59.296Z,10.24
2022-11-14T16:31:45.062Z,10.24
2022-11-14T16:34:59.727Z,10.21
2022-11-14T16:37:49.594Z,10.20
2022-11-14T16:40:36.548Z,10.19
2022-11-14T16:43:23.234Z,10.18
2022-11-14T16:46:11.595Z,10.11
2022-11-14T16:48:57.309Z,10.14
2022-11-14T16:51:49.317Z,10.22
2022-11-14T16:54:35.665Z,10.22
2022-11-14T16:57:21.659Z,10.25
2022-11-14T17:00:10.984Z,10.29
2022-11-14T17:02:57.004Z,10.33
2022-11-14T17:05:51.395Z,10.36
2022-11-14T17:08:37.602Z,10.35
2022-11-14T17:11:25.084Z,10.27
2022-11-14T17:14:11.176Z,10.29
2022-11-14T17:17:05.110Z,10.33
2022-11-14T17:20:02.751Z,10.29
2022-11-14T17:22:52.034Z,10.27
2022-11-14T17:25:44.862Z,10.21
2022-11-14T17:28:31.421Z,10.19
2022-11-14T17:31:17.575Z,10.26
2022-11-14T17:34:03.743Z,10.29
2022-11-14T17:36:49.287Z,10.26
2022-11-14T17:39:36.407Z,10.26
2022-11-14T17:42:22.322Z,10.24
2022-11-14T17:45:21.911Z,10.15
2022-11-14T17:48:08.291Z,10.24
2022-11-14T17:50:55.604Z,10.27
2022-11-14T17:53:42.821Z,10.27
2022-11-14T17:56:29.300Z,10.28
2022-11-14T17:59:15.850Z,10.25
2022-11-14T18:02:04.977Z,10.30
2022-11-14T18:04:50.937Z,10.22
2022-11-14T18:07:36.802Z,10.20
2022-11-14T18:10:22.546Z,10.24
2022-11-14T18:13:08.523Z,10.21
2022-11-14T18:15:54.209Z,10.24
2022-11-14T18:18:39.900Z,10.25
2022-11-14T18:21:26.875Z,10.24
2022-11-14T18:24:14.232Z,10.15
2022-11-14T18:26:59.753Z,10.20
2022-11-14T18:29:45.295Z,10.20
2022-11-14T18:32:31.585Z,10.20
2022-11-14T18:35:17.389Z,10.21
2022-11-14T18:38:02.914Z,10.17
2022-11-14T18:40:52.956Z,10.06
2022-11-14T18:44:14.678Z,10.10
2022-11-14T18:47:00.458Z,10.02
2022-11-14T18:50:13.433Z,10.06
2022-11-14T18:52:59.196Z,10.02
2022-11-14T18:56:23.233Z,10.06
2022-11-14T18:59:09.764Z,10.12
2022-11-14T19:01:55.763Z,10.07
2022-11-14T19:04:41.690Z,10.04
2022-11-14T19:07:29.811Z,9.97
2022-11-14T19:10:15.953Z,10.01
2022-11-14T19:13:01.389Z,10.05
2022-11-14T19:15:46.997Z,10.04
2022-11-14T19:18:33.127Z,10.14
2022-11-14T19:21:18.784Z,10.15
2022-11-14T19:24:04.969Z,10.08
2022-11-14T19:26:50.959Z,10.06
2022-11-14T19:29:40.207Z,10.08
2022-11-14T19:32:55.562Z,10.07
2022-11-14T19:35:41.910Z,10.06
2022-11-14T19:38:27.742Z,10.06
2022-11-14T19:41:32.816Z,10.09
2022-11-14T19:44:20.698Z,9.99
2022-11-14T19:47:50.424Z,9.98
2022-11-14T19:50:36.928Z,9.99
2022-11-14T19:53:22.572Z,9.95
2022-11-14T19:56:14.519Z,9.98
2022-11-14T19:59:00.660Z,9.85
2022-11-14T20:01:46.055Z,9.95
2022-11-14T20:04:36.834Z,9.94
2022-11-14T20:07:24.097Z,9.96
2022-11-14T20:10:11.384Z,9.95
2022-11-14T20:12:58.114Z,9.99
2022-11-14T20:15:43.674Z,9.99
2022-11-14T20:18:30.359Z,9.98
2022-11-14T20:21:44.771Z,10.03
2022-11-14T20:24:38.371Z,9.99
2022-11-14T20:27:24.258Z,9.94
2022-11-14T20:30:10.885Z,9.97
2022-11-14T20:32:56.466Z,9.85
2022-11-14T20:35:43.209Z,9.86
2022-11-14T20:38:33.352Z,9.80
2022-11-14T20:41:20.401Z,9.82
2022-11-14T20:44:05.851Z,9.87
2022-11-14T20:46:51.805Z,9.80
2022-11-14T20:49:37.603Z,9.92
2022-11-14T20:52:23.662Z,9.85
2022-11-14T20:55:11.937Z,9.87
2022-11-14T20:57:58.271Z,9.86
2022-11-14T21:00:43.853Z,9.82
2022-11-14T21:03:30.520Z,9.87
2022-11-14T21:06:17.079Z,9.82
2022-11-14T21:09:03.227Z,9.78
2022-11-14T21:11:50.184Z,9.76
2022-11-14T21:14:35.336Z,9.80
2022-11-14T21:17:21.098Z,9.77
2022-11-14T21:20:09.006Z,9.78
2022-11-14T21:22:56.490Z,9.77
2022-11-14T21:25:41.977Z,9.68
2022-11-14T21:28:36.792Z,9.65
2022-11-14T21:31:27.341Z,9.66
2022-11-14T21:34:15.722Z,9.62
2022-11-14T21:37:02.173Z,9.64
2022-11-14T21:39:49.292Z,9.58
2022-11-14T21:42:34.724Z,9.60
2022-11-14T21:45:20.589Z,9.59
2022-11-14T21:48:06.613Z,9.50
2022-11-14T21:50:52.765Z,9.59
2022-11-14T21:53:39.264Z,9.61
2022-11-14T21:56:30.210Z,9.58
2022-11-14T21:59:19.043Z,9.46
2022-11-14T22:02:23.589Z,9.58
2022-11-14T22:05:09.649Z,9.57
2022-11-14T22:07:55.114Z,9.59
2022-11-14T22:10:41.805Z,9.60
2022-11-14T22:13:30.691Z,9.54
2022-11-14T22:16:22.500Z,9.48
2022-11-14T22:19:08.413Z,9.44
2022-11-14T22:21:54.855Z,9.44
2022-11-14T22:24:40.954Z,9.45
2022-11-14T22:27:26.814Z,9.44
2022-11-14T22:30:14.326Z,9.43
2022-11-14T22:33:00.763Z,9.44
2022-11-14T22:35:46.392Z,9.43
2022-11-14T22:38:34.268Z,9.40
2022-11-14T22:41:25.239Z,9.40
2022-11-14T22:44:16.309Z,9.34
2022-11-14T22:47:01.830Z,9.33
2022-11-14T22:49:47.190Z,9.35
2022-11-14T22:52:33.422Z,9.35
2022-11-14T22:55:19.075Z,9.23
2022-11-14T22:58:05.188Z,9.29
2022-11-14T23:00:52.368Z,9.36
2022-11-14T23:03:39.316Z,9.36
2022-11-14T23:06:26.205Z,9.37
2022-11-14T23:09:12.093Z,9.36
2022-11-14T23:11:57.972Z,9.31
2022-11-14T23:14:43.568Z,9.32
2022-11-14T23:17:29.293Z,9.29
2022-11-14T23:20:16.789Z,9.33
2022-11-14T23:23:03.723Z,9.25
2022-11-14T23:25:49.524Z,9.25
2022-11-14T23:28:35.888Z,9.27
2022-11-14T23:31:25.758Z,9.30
2022-11-14T23:34:12.875Z,9.28
2022-11-14T23:37:00.649Z,9.17
2022-11-14T23:39:46.203Z,9.18
2022-11-14T23:42:31.996Z,9.19
2022-11-14T23:45:17.927Z,9.18
2022-11-14T23:48:04.164Z,9.25
2022-11-14T23:50:51.707Z,9.22
2022-11-14T23:53:38.148Z,9.19
2022-11-14T23:56:24.270Z,9.23
2022-11-14T23:59:10.004Z,9.29
